sensor_id;sensor_type;location;lat;lon;timestamp;P1;durP1;ratioP1;P2;durP2;ratioP2
18881;SDS011;9573;50.948;11.600;2023-03-01T00:01:23;38.17;;;13.77;;
18881;SDS011;9573;50.948;11.600;2023-03-01T00:03:53;41.47;;;13.63;;
18881;SDS011;9573;50.948;11.600;2023-03-01T00:06:21;41.40;;;14.00;;
18881;SDS011;9573;50.948;11.600;2023-03-01T00:08:49;43.40;;;14.40;;
18881;SDS011;9573;50.948;11.600;2023-03-01T00:11:17;38.37;;;14.20;;
18881;SDS011;9573;50.948;11.600;2023-03-01T00:13:49;45.40;;;14.53;;
18881;SDS011;9573;50.948;11.600;2023-03-01T00:16:19;41.57;;;14.30;;
18881;SDS011;9573;50.948;11.600;2023-03-01T00:18:48;41.20;;;14.40;;
18881;SDS011;9573;50.948;11.600;2023-03-01T00:21:17;42.63;;;14.70;;
18881;SDS011;9573;50.948;11.600;2023-03-01T00:23:46;40.53;;;14.63;;
18881;SDS011;9573;50.948;11.600;2023-03-01T00:26:14;43.30;;;14.03;;
18881;SDS011;9573;50.948;11.600;2023-03-01T00:28:43;41.97;;;15.03;;
18881;SDS011;9573;50.948;11.600;2023-03-01T00:31:12;45.10;;;14.53;;
18881;SDS011;9573;50.948;11.600;2023-03-01T00:33:42;40.60;;;14.63;;
18881;SDS011;9573;50.948;11.600;2023-03-01T00:36:10;41.70;;;15.13;;
18881;SDS011;9573;50.948;11.600;2023-03-01T00:38:40;44.57;;;15.43;;
18881;SDS011;9573;50.948;11.600;2023-03-01T00:41:10;40.23;;;14.17;;
18881;SDS011;9573;50.948;11.600;2023-03-01T00:43:40;40.17;;;14.67;;
18881;SDS011;9573;50.948;11.600;2023-03-01T00:46:09;44.10;;;15.37;;
18881;SDS011;9573;50.948;11.600;2023-03-01T00:48:39;44.10;;;14.60;;
18881;SDS011;9573;50.948;11.600;2023-03-01T00:51:06;41.73;;;14.50;;
18881;SDS011;9573;50.948;11.600;2023-03-01T00:53:35;41.93;;;14.97;;
18881;SDS011;9573;50.948;11.600;2023-03-01T00:56:04;44.50;;;16.23;;
18881;SDS011;9573;50.948;11.600;2023-03-01T00:58:33;45.43;;;15.33;;
18881;SDS011;9573;50.948;11.600;2023-03-01T01:01:06;41.30;;;14.40;;
18881;SDS011;9573;50.948;11.600;2023-03-01T01:03:43;40.80;;;15.67;;
18881;SDS011;9573;50.948;11.600;2023-03-01T01:06:15;42.03;;;15.17;;
18881;SDS011;9573;50.948;11.600;2023-03-01T01:08:44;44.57;;;14.63;;
18881;SDS011;9573;50.948;11.600;2023-03-01T01:11:11;45.07;;;15.47;;
18881;SDS011;9573;50.948;11.600;2023-03-01T01:13:40;41.23;;;15.23;;
18881;SDS011;9573;50.948;11.600;2023-03-01T01:16:07;47.10;;;15.43;;
18881;SDS011;9573;50.948;11.600;2023-03-01T01:18:34;40.37;;;15.23;;
18881;SDS011;9573;50.948;11.600;2023-03-01T01:21:07;45.37;;;15.10;;
18881;SDS011;9573;50.948;11.600;2023-03-01T01:23:37;42.90;;;15.50;;
18881;SDS011;9573;50.948;11.600;2023-03-01T01:26:05;42.13;;;14.37;;
18881;SDS011;9573;50.948;11.600;2023-03-01T01:28:34;42.47;;;15.20;;
18881;SDS011;9573;50.948;11.600;2023-03-01T01:31:01;44.67;;;15.33;;
18881;SDS011;9573;50.948;11.600;2023-03-01T01:33:28;44.57;;;14.97;;
18881;SDS011;9573;50.948;11.600;2023-03-01T01:35:55;45.50;;;15.27;;
18881;SDS011;9573;50.948;11.600;2023-03-01T01:38:24;41.80;;;14.67;;
18881;SDS011;9573;50.948;11.600;2023-03-01T01:40:51;45.00;;;15.87;;
18881;SDS011;9573;50.948;11.600;2023-03-01T01:43:19;44.90;;;15.43;;
18881;SDS011;9573;50.948;11.600;2023-03-01T01:45:49;45.83;;;15.67;;
18881;SDS011;9573;50.948;11.600;2023-03-01T01:48:18;46.73;;;15.63;;
18881;SDS011;9573;50.948;11.600;2023-03-01T01:50:50;45.37;;;16.00;;
18881;SDS011;9573;50.948;11.600;2023-03-01T01:53:24;50.40;;;16.23;;
18881;SDS011;9573;50.948;11.600;2023-03-01T01:55:54;41.47;;;15.90;;
18881;SDS011;9573;50.948;11.600;2023-03-01T01:58:25;47.83;;;16.50;;
18881;SDS011;9573;50.948;11.600;2023-03-01T02:00:55;43.50;;;15.60;;
18881;SDS011;9573;50.948;11.600;2023-03-01T02:03:23;46.67;;;15.90;;
18881;SDS011;9573;50.948;11.600;2023-03-01T02:05:56;47.97;;;15.97;;
18881;SDS011;9573;50.948;11.600;2023-03-01T02:08:32;46.80;;;16.87;;
18881;SDS011;9573;50.948;11.600;2023-03-01T02:11:03;47.73;;;16.13;;
18881;SDS011;9573;50.948;11.600;2023-03-01T02:13:32;48.03;;;17.07;;
18881;SDS011;9573;50.948;11.600;2023-03-01T02:16:02;48.67;;;16.93;;
18881;SDS011;9573;50.948;11.600;2023-03-01T02:18:31;45.40;;;15.93;;
18881;SDS011;9573;50.948;11.600;2023-03-01T02:21:02;45.40;;;15.87;;
18881;SDS011;9573;50.948;11.600;2023-03-01T02:23:45;42.93;;;15.97;;
18881;SDS011;9573;50.948;11.600;2023-03-01T02:26:16;47.10;;;15.77;;
18881;SDS011;9573;50.948;11.600;2023-03-01T02:28:51;52.97;;;17.40;;
18881;SDS011;9573;50.948;11.600;2023-03-01T02:31:19;45.33;;;15.37;;
18881;SDS011;9573;50.948;11.600;2023-03-01T02:34:05;45.27;;;15.33;;
18881;SDS011;9573;50.948;11.600;2023-03-01T02:36:35;42.83;;;15.13;;
18881;SDS011;9573;50.948;11.600;2023-03-01T02:39:07;43.33;;;14.80;;
18881;SDS011;9573;50.948;11.600;2023-03-01T02:41:41;43.17;;;15.40;;
18881;SDS011;9573;50.948;11.600;2023-03-01T02:44:13;41.43;;;15.27;;
18881;SDS011;9573;50.948;11.600;2023-03-01T02:46:45;43.50;;;14.53;;
18881;SDS011;9573;50.948;11.600;2023-03-01T02:49:21;40.17;;;14.03;;
18881;SDS011;9573;50.948;11.600;2023-03-01T02:55:06;40.87;;;13.90;;
18881;SDS011;9573;50.948;11.600;2023-03-01T02:57:37;42.77;;;14.47;;
18881;SDS011;9573;50.948;11.600;2023-03-01T03:00:10;42.17;;;14.30;;
18881;SDS011;9573;50.948;11.600;2023-03-01T03:02:44;46.07;;;14.73;;
18881;SDS011;9573;50.948;11.600;2023-03-01T03:05:13;42.70;;;14.87;;
18881;SDS011;9573;50.948;11.600;2023-03-01T03:07:44;44.03;;;14.40;;
18881;SDS011;9573;50.948;11.600;2023-03-01T03:10:17;43.57;;;13.83;;
18881;SDS011;9573;50.948;11.600;2023-03-01T03:12:48;40.93;;;14.43;;
18881;SDS011;9573;50.948;11.600;2023-03-01T03:15:18;42.37;;;14.03;;
18881;SDS011;9573;50.948;11.600;2023-03-01T03:17:46;46.40;;;15.20;;
18881;SDS011;9573;50.948;11.600;2023-03-01T03:20:15;39.97;;;14.03;;
18881;SDS011;9573;50.948;11.600;2023-03-01T03:22:45;41.97;;;14.70;;
18881;SDS011;9573;50.948;11.600;2023-03-01T03:25:13;46.90;;;15.57;;
18881;SDS011;9573;50.948;11.600;2023-03-01T03:27:41;44.10;;;14.90;;
18881;SDS011;9573;50.948;11.600;2023-03-01T03:30:11;43.37;;;14.10;;
18881;SDS011;9573;50.948;11.600;2023-03-01T03:32:43;44.40;;;13.90;;
18881;SDS011;9573;50.948;11.600;2023-03-01T03:35:17;42.50;;;14.53;;
18881;SDS011;9573;50.948;11.600;2023-03-01T03:37:46;42.50;;;14.43;;
18881;SDS011;9573;50.948;11.600;2023-03-01T03:40:29;42.73;;;14.20;;
18881;SDS011;9573;50.948;11.600;2023-03-01T03:42:58;42.40;;;15.40;;
18881;SDS011;9573;50.948;11.600;2023-03-01T03:45:26;42.83;;;14.80;;
18881;SDS011;9573;50.948;11.600;2023-03-01T03:47:55;47.70;;;15.80;;
18881;SDS011;9573;50.948;11.600;2023-03-01T03:50:22;43.03;;;13.77;;
18881;SDS011;9573;50.948;11.600;2023-03-01T03:52:49;43.43;;;14.87;;
18881;SDS011;9573;50.948;11.600;2023-03-01T03:55:16;41.93;;;13.83;;
18881;SDS011;9573;50.948;11.600;2023-03-01T03:57:44;41.80;;;14.03;;
18881;SDS011;9573;50.948;11.600;2023-03-01T04:00:17;42.97;;;14.57;;
18881;SDS011;9573;50.948;11.600;2023-03-01T04:02:45;41.33;;;14.27;;
18881;SDS011;9573;50.948;11.600;2023-03-01T04:05:15;42.70;;;15.10;;
18881;SDS011;9573;50.948;11.600;2023-03-01T04:07:45;64.67;;;20.17;;
18881;SDS011;9573;50.948;11.600;2023-03-01T04:10:13;45.37;;;15.87;;
18881;SDS011;9573;50.948;11.600;2023-03-01T04:12:41;49.23;;;16.37;;
18881;SDS011;9573;50.948;11.600;2023-03-01T04:15:09;54.03;;;16.43;;
18881;SDS011;9573;50.948;11.600;2023-03-01T04:17:41;44.80;;;14.90;;
18881;SDS011;9573;50.948;11.600;2023-03-01T04:20:11;45.87;;;15.60;;
18881;SDS011;9573;50.948;11.600;2023-03-01T04:22:42;44.87;;;15.87;;
18881;SDS011;9573;50.948;11.600;2023-03-01T04:25:12;43.67;;;14.77;;
18881;SDS011;9573;50.948;11.600;2023-03-01T04:27:40;41.80;;;14.77;;
18881;SDS011;9573;50.948;11.600;2023-03-01T04:30:08;44.93;;;15.20;;
18881;SDS011;9573;50.948;11.600;2023-03-01T04:32:36;44.53;;;14.80;;
18881;SDS011;9573;50.948;11.600;2023-03-01T04:35:03;43.23;;;14.93;;
18881;SDS011;9573;50.948;11.600;2023-03-01T04:37:32;42.17;;;14.30;;
18881;SDS011;9573;50.948;11.600;2023-03-01T04:40:00;44.73;;;15.70;;
18881;SDS011;9573;50.948;11.600;2023-03-01T04:42:33;44.00;;;14.93;;
18881;SDS011;9573;50.948;11.600;2023-03-01T04:45:00;43.10;;;14.00;;
18881;SDS011;9573;50.948;11.600;2023-03-01T04:47:27;46.60;;;15.80;;
18881;SDS011;9573;50.948;11.600;2023-03-01T04:49:54;41.63;;;14.33;;
18881;SDS011;9573;50.948;11.600;2023-03-01T04:52:21;45.43;;;15.23;;
18881;SDS011;9573;50.948;11.600;2023-03-01T04:54:50;52.77;;;16.47;;
18881;SDS011;9573;50.948;11.600;2023-03-01T04:57:17;44.87;;;16.00;;
18881;SDS011;9573;50.948;11.600;2023-03-01T04:59:45;44.60;;;15.50;;
18881;SDS011;9573;50.948;11.600;2023-03-01T05:02:12;48.23;;;15.27;;
18881;SDS011;9573;50.948;11.600;2023-03-01T05:04:39;49.27;;;15.50;;
18881;SDS011;9573;50.948;11.600;2023-03-01T05:07:06;48.03;;;16.10;;
18881;SDS011;9573;50.948;11.600;2023-03-01T05:09:33;46.67;;;16.30;;
18881;SDS011;9573;50.948;11.600;2023-03-01T05:12:02;48.37;;;17.57;;
18881;SDS011;9573;50.948;11.600;2023-03-01T05:14:29;47.90;;;15.43;;
18881;SDS011;9573;50.948;11.600;2023-03-01T05:16:56;50.20;;;17.23;;
18881;SDS011;9573;50.948;11.600;2023-03-01T05:19:28;47.90;;;16.33;;
18881;SDS011;9573;50.948;11.600;2023-03-01T05:21:56;46.57;;;16.50;;
18881;SDS011;9573;50.948;11.600;2023-03-01T05:24:30;51.47;;;16.07;;
18881;SDS011;9573;50.948;11.600;2023-03-01T05:26:59;46.27;;;16.30;;
18881;SDS011;9573;50.948;11.600;2023-03-01T05:29:29;48.83;;;16.63;;
18881;SDS011;9573;50.948;11.600;2023-03-01T05:32:00;50.10;;;16.60;;
18881;SDS011;9573;50.948;11.600;2023-03-01T05:34:29;48.97;;;16.13;;
18881;SDS011;9573;50.948;11.600;2023-03-01T05:36:59;49.60;;;17.07;;
18881;SDS011;9573;50.948;11.600;2023-03-01T05:39:27;50.03;;;17.20;;
18881;SDS011;9573;50.948;11.600;2023-03-01T05:41:57;53.40;;;16.77;;
18881;SDS011;9573;50.948;11.600;2023-03-01T05:44:28;45.93;;;15.43;;
18881;SDS011;9573;50.948;11.600;2023-03-01T05:46:55;47.37;;;16.23;;
18881;SDS011;9573;50.948;11.600;2023-03-01T05:49:22;49.00;;;17.20;;
18881;SDS011;9573;50.948;11.600;2023-03-01T05:51:50;49.47;;;16.93;;
18881;SDS011;9573;50.948;11.600;2023-03-01T05:54:19;43.60;;;15.53;;
18881;SDS011;9573;50.948;11.600;2023-03-01T05:56:47;46.43;;;15.30;;
18881;SDS011;9573;50.948;11.600;2023-03-01T05:59:15;47.37;;;15.97;;
18881;SDS011;9573;50.948;11.600;2023-03-01T06:01:43;46.63;;;15.90;;
18881;SDS011;9573;50.948;11.600;2023-03-01T06:04:10;46.17;;;16.83;;
18881;SDS011;9573;50.948;11.600;2023-03-01T06:06:37;46.97;;;16.13;;
18881;SDS011;9573;50.948;11.600;2023-03-01T06:09:05;47.57;;;15.97;;
18881;SDS011;9573;50.948;11.600;2023-03-01T06:11:34;50.87;;;16.60;;
18881;SDS011;9573;50.948;11.600;2023-03-01T06:14:03;48.83;;;17.40;;
18881;SDS011;9573;50.948;11.600;2023-03-01T06:16:32;52.53;;;17.17;;
18881;SDS011;9573;50.948;11.600;2023-03-01T06:19:01;49.73;;;17.63;;
18881;SDS011;9573;50.948;11.600;2023-03-01T06:21:28;52.53;;;17.60;;
18881;SDS011;9573;50.948;11.600;2023-03-01T06:23:55;50.00;;;17.43;;
18881;SDS011;9573;50.948;11.600;2023-03-01T06:26:23;51.77;;;18.47;;
18881;SDS011;9573;50.948;11.600;2023-03-01T06:28:50;49.63;;;17.27;;
18881;SDS011;9573;50.948;11.600;2023-03-01T06:31:17;51.60;;;18.03;;
18881;SDS011;9573;50.948;11.600;2023-03-01T06:33:44;51.47;;;17.67;;
18881;SDS011;9573;50.948;11.600;2023-03-01T06:36:12;56.40;;;20.07;;
18881;SDS011;9573;50.948;11.600;2023-03-01T06:38:39;54.67;;;20.30;;
18881;SDS011;9573;50.948;11.600;2023-03-01T06:41:06;59.00;;;20.43;;
18881;SDS011;9573;50.948;11.600;2023-03-01T06:43:33;56.27;;;20.60;;
18881;SDS011;9573;50.948;11.600;2023-03-01T06:46:03;51.90;;;19.23;;
18881;SDS011;9573;50.948;11.600;2023-03-01T06:48:31;53.27;;;18.43;;
18881;SDS011;9573;50.948;11.600;2023-03-01T06:50:59;49.13;;;17.13;;
18881;SDS011;9573;50.948;11.600;2023-03-01T06:53:28;60.67;;;19.23;;
18881;SDS011;9573;50.948;11.600;2023-03-01T06:55:56;51.80;;;18.87;;
18881;SDS011;9573;50.948;11.600;2023-03-01T06:58:24;58.93;;;21.93;;
18881;SDS011;9573;50.948;11.600;2023-03-01T07:00:51;55.43;;;20.07;;
18881;SDS011;9573;50.948;11.600;2023-03-01T07:03:18;54.47;;;20.87;;
18881;SDS011;9573;50.948;11.600;2023-03-01T07:05:48;50.37;;;19.33;;
18881;SDS011;9573;50.948;11.600;2023-03-01T07:08:16;49.10;;;19.27;;
18881;SDS011;9573;50.948;11.600;2023-03-01T07:10:45;46.43;;;18.00;;
18881;SDS011;9573;50.948;11.600;2023-03-01T07:13:12;47.30;;;17.20;;
18881;SDS011;9573;50.948;11.600;2023-03-01T07:15:39;41.07;;;17.47;;
18881;SDS011;9573;50.948;11.600;2023-03-01T07:18:06;48.93;;;17.43;;
18881;SDS011;9573;50.948;11.600;2023-03-01T07:20:34;41.93;;;18.67;;
18881;SDS011;9573;50.948;11.600;2023-03-01T07:23:01;44.03;;;18.53;;
18881;SDS011;9573;50.948;11.600;2023-03-01T07:25:28;41.37;;;18.40;;
18881;SDS011;9573;50.948;11.600;2023-03-01T07:27:57;43.63;;;19.40;;
18881;SDS011;9573;50.948;11.600;2023-03-01T07:30:24;48.90;;;20.07;;
18881;SDS011;9573;50.948;11.600;2023-03-01T07:32:53;44.77;;;20.03;;
18881;SDS011;9573;50.948;11.600;2023-03-01T07:35:21;40.73;;;19.13;;
18881;SDS011;9573;50.948;11.600;2023-03-01T07:37:48;43.07;;;18.77;;
18881;SDS011;9573;50.948;11.600;2023-03-01T07:40:16;42.67;;;18.43;;
18881;SDS011;9573;50.948;11.600;2023-03-01T07:42:43;36.83;;;18.23;;
18881;SDS011;9573;50.948;11.600;2023-03-01T07:45:11;41.53;;;17.37;;
18881;SDS011;9573;50.948;11.600;2023-03-01T07:47:39;37.60;;;18.23;;
18881;SDS011;9573;50.948;11.600;2023-03-01T07:50:06;38.50;;;17.87;;
18881;SDS011;9573;50.948;11.600;2023-03-01T07:52:35;38.53;;;19.07;;
18881;SDS011;9573;50.948;11.600;2023-03-01T07:55:03;37.63;;;17.03;;
18881;SDS011;9573;50.948;11.600;2023-03-01T07:57:31;37.93;;;17.77;;
18881;SDS011;9573;50.948;11.600;2023-03-01T07:59:58;35.90;;;17.90;;
18881;SDS011;9573;50.948;11.600;2023-03-01T08:02:26;37.00;;;17.30;;
18881;SDS011;9573;50.948;11.600;2023-03-01T08:04:53;35.23;;;17.23;;
18881;SDS011;9573;50.948;11.600;2023-03-01T08:07:20;36.30;;;16.23;;
18881;SDS011;9573;50.948;11.600;2023-03-01T08:09:47;36.20;;;16.93;;
18881;SDS011;9573;50.948;11.600;2023-03-01T08:12:14;36.43;;;16.43;;
18881;SDS011;9573;50.948;11.600;2023-03-01T08:14:42;38.03;;;15.63;;
18881;SDS011;9573;50.948;11.600;2023-03-01T08:17:09;32.93;;;15.13;;
18881;SDS011;9573;50.948;11.600;2023-03-01T08:19:38;34.33;;;15.87;;
18881;SDS011;9573;50.948;11.600;2023-03-01T08:22:05;31.90;;;15.87;;
18881;SDS011;9573;50.948;11.600;2023-03-01T08:24:32;33.90;;;15.33;;
18881;SDS011;9573;50.948;11.600;2023-03-01T08:26:59;34.57;;;15.23;;
18881;SDS011;9573;50.948;11.600;2023-03-01T08:29:27;34.23;;;15.57;;
18881;SDS011;9573;50.948;11.600;2023-03-01T08:31:56;33.07;;;15.40;;
18881;SDS011;9573;50.948;11.600;2023-03-01T08:34:23;34.50;;;16.43;;
18881;SDS011;9573;50.948;11.600;2023-03-01T08:36:52;32.33;;;15.37;;
18881;SDS011;9573;50.948;11.600;2023-03-01T08:39:20;31.27;;;15.40;;
18881;SDS011;9573;50.948;11.600;2023-03-01T08:41:47;35.03;;;15.97;;
18881;SDS011;9573;50.948;11.600;2023-03-01T08:44:14;34.43;;;16.37;;
18881;SDS011;9573;50.948;11.600;2023-03-01T08:46:42;37.90;;;16.60;;
18881;SDS011;9573;50.948;11.600;2023-03-01T08:49:11;37.37;;;17.20;;
18881;SDS011;9573;50.948;11.600;2023-03-01T08:51:40;34.87;;;17.17;;
18881;SDS011;9573;50.948;11.600;2023-03-01T08:54:11;33.67;;;16.73;;
18881;SDS011;9573;50.948;11.600;2023-03-01T08:56:40;32.30;;;16.00;;
18881;SDS011;9573;50.948;11.600;2023-03-01T08:59:09;32.77;;;14.10;;
18881;SDS011;9573;50.948;11.600;2023-03-01T09:01:37;33.93;;;15.80;;
18881;SDS011;9573;50.948;11.600;2023-03-01T09:04:05;35.50;;;14.80;;
18881;SDS011;9573;50.948;11.600;2023-03-01T09:06:32;34.60;;;15.00;;
18881;SDS011;9573;50.948;11.600;2023-03-01T09:09:00;36.30;;;15.23;;
18881;SDS011;9573;50.948;11.600;2023-03-01T09:11:30;32.17;;;14.50;;
18881;SDS011;9573;50.948;11.600;2023-03-01T09:13:58;34.40;;;15.60;;
18881;SDS011;9573;50.948;11.600;2023-03-01T09:16:25;33.07;;;15.17;;
18881;SDS011;9573;50.948;11.600;2023-03-01T09:18:52;33.93;;;15.00;;
18881;SDS011;9573;50.948;11.600;2023-03-01T09:21:21;34.10;;;15.20;;
18881;SDS011;9573;50.948;11.600;2023-03-01T09:23:49;33.07;;;15.00;;
18881;SDS011;9573;50.948;11.600;2023-03-01T09:26:18;34.10;;;15.03;;
18881;SDS011;9573;50.948;11.600;2023-03-01T09:28:49;33.10;;;14.03;;
18881;SDS011;9573;50.948;11.600;2023-03-01T09:31:19;39.07;;;15.07;;
18881;SDS011;9573;50.948;11.600;2023-03-01T09:33:48;32.70;;;15.13;;
18881;SDS011;9573;50.948;11.600;2023-03-01T09:36:18;40.37;;;14.73;;
18881;SDS011;9573;50.948;11.600;2023-03-01T09:38:47;30.83;;;14.30;;
18881;SDS011;9573;50.948;11.600;2023-03-01T09:41:24;32.20;;;14.20;;
18881;SDS011;9573;50.948;11.600;2023-03-01T09:44:05;31.47;;;14.13;;
18881;SDS011;9573;50.948;11.600;2023-03-01T09:46:43;40.10;;;14.93;;
18881;SDS011;9573;50.948;11.600;2023-03-01T09:49:12;32.60;;;13.70;;
18881;SDS011;9573;50.948;11.600;2023-03-01T09:51:43;36.10;;;14.87;;
18881;SDS011;9573;50.948;11.600;2023-03-01T09:54:21;36.87;;;14.97;;
18881;SDS011;9573;50.948;11.600;2023-03-01T09:56:53;32.60;;;14.23;;
18881;SDS011;9573;50.948;11.600;2023-03-01T09:59:33;34.70;;;14.40;;
18881;SDS011;9573;50.948;11.600;2023-03-01T10:02:23;31.07;;;13.67;;
18881;SDS011;9573;50.948;11.600;2023-03-01T10:04:58;29.83;;;13.50;;
18881;SDS011;9573;50.948;11.600;2023-03-01T10:07:54;36.13;;;14.57;;
18881;SDS011;9573;50.948;11.600;2023-03-01T10:10:37;31.37;;;14.13;;
18881;SDS011;9573;50.948;11.600;2023-03-01T10:13:10;32.37;;;14.47;;
18881;SDS011;9573;50.948;11.600;2023-03-01T10:15:47;32.83;;;15.20;;
18881;SDS011;9573;50.948;11.600;2023-03-01T10:18:20;33.97;;;13.90;;
18881;SDS011;9573;50.948;11.600;2023-03-01T10:20:52;33.03;;;13.60;;
18881;SDS011;9573;50.948;11.600;2023-03-01T10:23:22;34.13;;;13.70;;
18881;SDS011;9573;50.948;11.600;2023-03-01T10:25:54;37.40;;;14.80;;
18881;SDS011;9573;50.948;11.600;2023-03-01T10:28:36;35.97;;;14.63;;
18881;SDS011;9573;50.948;11.600;2023-03-01T10:31:19;31.90;;;13.90;;
18881;SDS011;9573;50.948;11.600;2023-03-01T10:33:53;31.90;;;13.57;;
18881;SDS011;9573;50.948;11.600;2023-03-01T10:36:22;31.97;;;14.33;;
18881;SDS011;9573;50.948;11.600;2023-03-01T10:38:51;31.60;;;13.90;;
18881;SDS011;9573;50.948;11.600;2023-03-01T10:41:22;34.97;;;13.77;;
18881;SDS011;9573;50.948;11.600;2023-03-01T10:43:52;33.70;;;14.00;;
18881;SDS011;9573;50.948;11.600;2023-03-01T10:46:24;31.27;;;13.27;;
18881;SDS011;9573;50.948;11.600;2023-03-01T10:49:06;35.10;;;14.50;;
18881;SDS011;9573;50.948;11.600;2023-03-01T10:51:42;32.97;;;14.43;;
18881;SDS011;9573;50.948;11.600;2023-03-01T10:54:16;32.07;;;14.03;;
18881;SDS011;9573;50.948;11.600;2023-03-01T10:56:47;30.63;;;13.77;;
18881;SDS011;9573;50.948;11.600;2023-03-01T10:59:22;29.37;;;13.93;;
18881;SDS011;9573;50.948;11.600;2023-03-01T11:02:16;32.27;;;14.33;;
18881;SDS011;9573;50.948;11.600;2023-03-01T11:04:56;32.37;;;13.80;;
18881;SDS011;9573;50.948;11.600;2023-03-01T11:07:26;35.27;;;14.87;;
18881;SDS011;9573;50.948;11.600;2023-03-01T11:09:53;33.93;;;14.80;;
18881;SDS011;9573;50.948;11.600;2023-03-01T11:12:21;38.80;;;14.20;;
18881;SDS011;9573;50.948;11.600;2023-03-01T11:14:49;32.80;;;13.20;;
18881;SDS011;9573;50.948;11.600;2023-03-01T11:17:23;30.47;;;13.33;;
18881;SDS011;9573;50.948;11.600;2023-03-01T11:20:00;31.03;;;13.83;;
18881;SDS011;9573;50.948;11.600;2023-03-01T11:22:29;32.67;;;14.63;;
18881;SDS011;9573;50.948;11.600;2023-03-01T11:24:59;33.43;;;14.80;;
18881;SDS011;9573;50.948;11.600;2023-03-01T11:27:28;32.73;;;13.73;;
18881;SDS011;9573;50.948;11.600;2023-03-01T11:29:59;31.03;;;14.43;;
18881;SDS011;9573;50.948;11.600;2023-03-01T11:32:34;33.17;;;14.37;;
18881;SDS011;9573;50.948;11.600;2023-03-01T11:35:09;28.80;;;13.67;;
18881;SDS011;9573;50.948;11.600;2023-03-01T11:37:44;31.80;;;14.07;;
18881;SDS011;9573;50.948;11.600;2023-03-01T11:40:26;33.77;;;13.40;;
18881;SDS011;9573;50.948;11.600;2023-03-01T11:43:01;32.57;;;14.27;;
18881;SDS011;9573;50.948;11.600;2023-03-01T11:45:41;32.50;;;14.70;;
18881;SDS011;9573;50.948;11.600;2023-03-01T11:48:51;33.70;;;15.43;;
18881;SDS011;9573;50.948;11.600;2023-03-01T11:51:36;31.57;;;14.03;;
18881;SDS011;9573;50.948;11.600;2023-03-01T11:54:18;30.77;;;13.27;;
18881;SDS011;9573;50.948;11.600;2023-03-01T11:56:57;32.30;;;14.07;;
18881;SDS011;9573;50.948;11.600;2023-03-01T12:09:09;34.00;;;14.50;;
18881;SDS011;9573;50.948;11.600;2023-03-01T12:11:58;32.70;;;14.60;;
18881;SDS011;9573;50.948;11.600;2023-03-01T12:14:55;36.13;;;14.87;;
18881;SDS011;9573;50.948;11.600;2023-03-01T12:17:56;32.47;;;15.00;;
18881;SDS011;9573;50.948;11.600;2023-03-01T12:20:36;35.23;;;14.67;;
18881;SDS011;9573;50.948;11.600;2023-03-01T12:26:25;34.23;;;14.23;;
18881;SDS011;9573;50.948;11.600;2023-03-01T12:29:14;34.57;;;13.83;;
18881;SDS011;9573;50.948;11.600;2023-03-01T12:31:59;32.93;;;14.57;;
18881;SDS011;9573;50.948;11.600;2023-03-01T12:35:04;33.70;;;14.47;;
18881;SDS011;9573;50.948;11.600;2023-03-01T12:37:49;33.37;;;13.97;;
18881;SDS011;9573;50.948;11.600;2023-03-01T12:40:29;32.37;;;14.10;;
18881;SDS011;9573;50.948;11.600;2023-03-01T12:43:32;31.87;;;13.70;;
18881;SDS011;9573;50.948;11.600;2023-03-01T12:46:19;33.77;;;14.23;;
18881;SDS011;9573;50.948;11.600;2023-03-01T12:48:59;32.27;;;13.70;;
18881;SDS011;9573;50.948;11.600;2023-03-01T12:51:34;32.77;;;14.40;;
18881;SDS011;9573;50.948;11.600;2023-03-01T12:54:05;34.73;;;13.90;;
18881;SDS011;9573;50.948;11.600;2023-03-01T12:56:42;35.43;;;14.83;;
18881;SDS011;9573;50.948;11.600;2023-03-01T12:59:18;34.57;;;13.50;;
18881;SDS011;9573;50.948;11.600;2023-03-01T13:01:53;42.97;;;13.83;;
18881;SDS011;9573;50.948;11.600;2023-03-01T13:04:33;32.60;;;12.90;;
18881;SDS011;9573;50.948;11.600;2023-03-01T13:07:14;34.50;;;13.60;;
18881;SDS011;9573;50.948;11.600;2023-03-01T13:09:54;30.87;;;12.83;;
18881;SDS011;9573;50.948;11.600;2023-03-01T13:12:44;35.77;;;13.53;;
18881;SDS011;9573;50.948;11.600;2023-03-01T13:18:01;37.53;;;13.47;;
18881;SDS011;9573;50.948;11.600;2023-03-01T13:20:31;28.13;;;12.30;;
18881;SDS011;9573;50.948;11.600;2023-03-01T13:23:12;32.83;;;13.40;;
18881;SDS011;9573;50.948;11.600;2023-03-01T13:26:05;33.53;;;13.07;;
18881;SDS011;9573;50.948;11.600;2023-03-01T13:28:46;30.57;;;11.80;;
18881;SDS011;9573;50.948;11.600;2023-03-01T13:34:46;32.23;;;13.70;;
18881;SDS011;9573;50.948;11.600;2023-03-01T13:40:08;28.63;;;11.90;;
18881;SDS011;9573;50.948;11.600;2023-03-01T13:43:28;30.87;;;12.23;;
18881;SDS011;9573;50.948;11.600;2023-03-01T13:45:57;32.77;;;13.10;;
18881;SDS011;9573;50.948;11.600;2023-03-01T13:48:26;33.00;;;13.20;;
18881;SDS011;9573;50.948;11.600;2023-03-01T13:50:57;30.17;;;12.20;;
18881;SDS011;9573;50.948;11.600;2023-03-01T13:53:27;52.50;;;14.30;;
18881;SDS011;9573;50.948;11.600;2023-03-01T13:56:00;34.07;;;13.33;;
18881;SDS011;9573;50.948;11.600;2023-03-01T13:58:43;30.27;;;12.20;;
18881;SDS011;9573;50.948;11.600;2023-03-01T14:01:20;30.37;;;11.83;;
18881;SDS011;9573;50.948;11.600;2023-03-01T14:03:51;29.70;;;11.97;;
18881;SDS011;9573;50.948;11.600;2023-03-01T14:06:19;31.60;;;12.33;;
18881;SDS011;9573;50.948;11.600;2023-03-01T14:08:50;30.90;;;11.67;;
18881;SDS011;9573;50.948;11.600;2023-03-01T14:14:32;27.73;;;10.53;;
18881;SDS011;9573;50.948;11.600;2023-03-01T14:17:16;33.00;;;12.00;;
18881;SDS011;9573;50.948;11.600;2023-03-01T14:20:14;30.50;;;12.40;;
18881;SDS011;9573;50.948;11.600;2023-03-01T14:22:45;33.20;;;11.47;;
18881;SDS011;9573;50.948;11.600;2023-03-01T14:25:23;34.47;;;11.80;;
18881;SDS011;9573;50.948;11.600;2023-03-01T14:27:58;29.90;;;11.13;;
18881;SDS011;9573;50.948;11.600;2023-03-01T14:30:33;31.10;;;11.43;;
18881;SDS011;9573;50.948;11.600;2023-03-01T14:33:05;28.57;;;10.43;;
18881;SDS011;9573;50.948;11.600;2023-03-01T14:35:51;30.77;;;10.90;;
18881;SDS011;9573;50.948;11.600;2023-03-01T14:38:21;26.33;;;9.80;;
18881;SDS011;9573;50.948;11.600;2023-03-01T14:40:51;30.30;;;11.17;;
18881;SDS011;9573;50.948;11.600;2023-03-01T14:43:24;31.77;;;10.53;;
18881;SDS011;9573;50.948;11.600;2023-03-01T14:45:53;32.23;;;11.53;;
18881;SDS011;9573;50.948;11.600;2023-03-01T14:48:21;29.13;;;9.37;;
18881;SDS011;9573;50.948;11.600;2023-03-01T14:50:49;34.03;;;12.73;;
18881;SDS011;9573;50.948;11.600;2023-03-01T14:53:17;30.87;;;11.07;;
18881;SDS011;9573;50.948;11.600;2023-03-01T14:55:48;35.80;;;12.10;;
18881;SDS011;9573;50.948;11.600;2023-03-01T14:58:20;32.90;;;12.23;;
18881;SDS011;9573;50.948;11.600;2023-03-01T15:00:50;34.67;;;12.27;;
18881;SDS011;9573;50.948;11.600;2023-03-01T15:03:26;34.03;;;12.83;;
18881;SDS011;9573;50.948;11.600;2023-03-01T15:05:57;32.40;;;13.50;;
18881;SDS011;9573;50.948;11.600;2023-03-01T15:08:27;36.40;;;13.53;;
18881;SDS011;9573;50.948;11.600;2023-03-01T15:11:02;33.20;;;12.80;;
18881;SDS011;9573;50.948;11.600;2023-03-01T15:13:32;36.53;;;13.50;;
18881;SDS011;9573;50.948;11.600;2023-03-01T15:16:03;33.73;;;13.20;;